terça-feira, 1 de novembro de 2011

ACIDENTE COM AVIÃO DA EQUIPE HENDRICK NASCAR


aircrash 004 NASCAR Owner Hendrick Hurt In Florida Plane Crash

KEY WEST, Fla. (CBSDFW.COM/AP) - O proprietário de conhecida equipe da NASAR e sua esposa estão se recuperando em um hospital da Flórida após a acidente durante pouso de seu de avião em um aeroporto de Key West.

Rick Hendrick e sua esposa Linda estavam voando em Key West na noite de ontem (31) quando o Gulfstream 150  eles estavam saiu da pista.

Uma porta-voz do escritório do Xerife do Condado de Monroe, em Key West, diz  que o piloto e o co-piloto do jato Gulfstream 150 falaram pelo rádio para Torre do Aeroporto Internacional de Key West que os freios do avião estavam falhando, e fariam um pouso forçado.


aircrash 008 NASCAR Owner Hendrick Hurt In Florida Plane Crash

 O avião está registrado para Jimmie Johnson Racing Incorporated de Charlotte, NC, Johnson não estava no avião no momento do acidente.
Hendrick também possui equipes de corridas de NASCAR Sprint Cup, com os pilotos Mark Martin, Jeff Gordon e Dale Earnhardt. Hendrick recentemente comemorou sua vitória de número 199 na Série Sprint Cup como proprietário.

Peter Horton diretor do aeroporto disse que o avião saiu da pista 100 pés após e dentro  da área de segurança de 600 pés que foi terminada em maio.
"Se não tivéssemos feito isso, provavelmente teria sido uma história diferente", disse Horton.

Fotografias do acidente mostram o avião intacto e com o seu nariz descansando no chão cerca de 20 metros na frente de um muro de contorno da cadeia vizinha ao aeroporto.


aircrash 010 NASCAR Owner Hendrick Hurt In Florida Plane Crash

 

O National Transportation Safety Board foi notificada do acidente e fará uma investigação do acidente.


Todos os quatro ocupantes foram  levados para o Centro Médico de Lower Keys . Os Hendricks tiveram ferimentos leves e foram liberados os pilotos ficaram hospitalizados por precaução, disse Peter Horton.

A NASCAR Sprint Cup Series desloca-se para Fort Worth neste fim de semana para os 500 AAA. Há três corridas restantes na temporada 2011, incluindo a corrida de domingo no Texas Motor Speedway.

Jimmie Johnson está atualmente em 6 º lugar no campeonato 2011 da NASCAR. Earnhardt está na nona, décima e Gordon Martin 20.

Em 2004, um avião de propriedade Hendrick caiu a caminho de uma corrida em Martinsville, na Virgínia, matando todos os 10 a bordo. Que incluía o filho de Hendrick, Ricky, seu irmão e sobrinhas gêmeas.



fonte/foto/CBSDFW

AVIÃO BOLIVIANO PEGA FOGO DEPOIS DE POUSAR EM MATO GROSSO, HÁ SUSPEITA DE CARREGAMENTO


Testemunhas que não quiseram se identificar disseram que o avião pousou na pista e em seguida começou a pegar fogo. Consta que vários pacotes não identificados foram transportados do avião para uma caminhonete F.1000.

O proprietário da chácara Veneza que se fez presente no local e foi constado como vitima no B.O, informou que no momento do ocorrido o caseiro que cuida da chácara não se fazia presente. Foi acionado o corpo de Bombeiros mas o fogo já era intenso.

A Policia Militar esta fazendo Blits no entorno da cidade para localizar essa caminhonete F.1000, pois ninguém até o presente momento informou ser proprietário do avião.
Um avião boliviano pegou fogo ao pousar nesta terça-feira, 1, na pista da Chácara Veneza,  de propriedade do pecuarista Clineu Bittencourt Dias. O avião, um Cessna Stationair II,  estaria supostamente carregado de drogas.

fonte/foto/24HorasNews

AVIÃO AGRÍCOLA FAZ POUSO FORÇADO APÓS DECOLAR, MATO GROSSO



Agência da Notícia/Uasley Werneck

Um avião pulverizador decolou do Aerodromo Municipal de Confresa e teve que fazer um pouso forçado a cerca de 2 Km do aeroporto. O avião seguia de Confresa para uma Fazenda no Fontoura. De acordo com testemunhas houve um estrondo muito alto. "Quando sai lá fora vi que um avião havia caído na pastagem” -  relatou uma testemunha.

O pouso forçado aconteceu em uma pastagem que fica em frente ao parque de exposições da Expofresa.  Não houve feridos, apenas danos materiais.

O avião pertencia a uma fazenda localizada na região do Fontoura, 90 Km de Confresa. Uma pane no motor da aeronave pode ter causado a queda.  O prejuízo estimado é de cerca de R$ 150 mil,  uma vez que o avião não tinha seguro.


Agência da Notícia/Uasley Werneck

Os dois homens que estavam no interior da aeronave aguardam a chegada dos responsáveis pelo avião para devidas providências.

Agência da Notícia/Uasley Werneck

fonte/foto/24HorasNews

RESUMO 15


Linhas regionais da Azul começam no dia 10 de novembro

A companhia aérea Azul implantará linhas regionais no Rio Grande do Sul. Em encontro com o governador Tarso Genro, a diretoria da empresa adiantou que Caxias do Sul e Pelotas vão ganhar um vôo direto para a cidade a Campinas. A cidade da Serra será a primeira contemplada. As operações começam no próximo dia 10. Em 2012, será a vez da Região Sul e de Passo Fundo.

fonte/ZeroHora 

Publicada em 1/11/2011 19:25:00

Infraero firma acordo para ampliar Aeroporto de Manaus

A Infraero publicou hoje, no Diário Oficial da União, o extrato de assinatura do contrato para a reforma e ampliação do Aeroporto Internacional de Manaus - Eduardo Gomes.

O investimento será de R$ 344 milhões. Com as obras, o Terminal de Passageiros passará a ter 97 mil metros quadrados e poderá atender até nove milhões de passageiros por ano.

O projeto de modernização do Aeroporto de Manaus prevê alterações que permitirão as operações de embarque e desembarque de passageiros em níveis diferentes, agilizando o fluxo de pessoas no trajeto entre aeronaves e terminal; ampliação no número de balcões de check-in e novas esteiras de bagagem, entre outras melhorias.
 
 
fonte/PanRotas
 

KLM transmitiu voo inaugural Amsterdã-RJ no Facebook

A chegada do voo inaugural da KLM Amsterdã-Rio de Janeiro, KL 705, foi transmitida ao vivo na página da companhia no Facebook (www.facebook.com/klmbrasil). A aeronave, batizada de City of Rio de Janeiro, partiu de Amsterdã hoje (terça-feira, dia 1º), às 10h40, horário local, e chegou no Aeroporto Internacional Antônio Carlos Jobim – Galeão, hoje às 19h30. Os internautas acompanharam informações sobre o voo, como status, desembarque e cerimonial de chegada.

A companhia vai operar semanalmente três voos diretos, com saídas do Aeroporto de Schipol, na Holanda, às terças, quintas e sábados às 10h40, chegando ao Galeão no mesmo dia, às 19h30 – horários locais.

O voo de retorno parte do Rio de Janeiro às terças, quintas e sábados às 21h40, chegando a Amsterdã no dia seguinte, às 11h55 – horários locais. O trajeto é feito em aeronaves Boeing 777-200ER com capacidade para 318 passageiros, sendo 35 na classe executiva e 283 na classe econômica. 
 
fonte/PanRotas
 

Voo da Tam para México tem quase 100% de ocupação

Na home, o comissário oferece prosecco para os passageiros. Aqui, a aeronave A330 com quase 100% de ocupação
Na home, o comissário oferece prosecco para os passageiros. Aqui, a aeronave A330 com quase 100% de ocupação
 
CIDADE DO MÉXICO - A Tam realizou domingo, dia 30, seu primeiro voo para a Cidade do México. A aeronave A330, quase 100 % ocupada, saiu de São Paulo às 9h25 e chegou a capital mexicana às 15h50 (horário local). Para comemorar, comissários ofereceram prosecco aos passageiros, e na chegada à Cidade do México houve o tradicional batismo, quando carros de bombeiros jogam jatos de água na aeronave.
 
fonte/foto/PanRotas

BOEING 767-300 DA LOT FAZ POUSO DE EMERGÊNCIA









Um Boeing 767-300 da LOT Polish Airlines, registro SP-LPC realizando o voo LO-16, de Newark,NJ (USA) para Warsaw (Polonia) com 230 pessoas a bordo, realizou um pouso de emergência após indicação de pane no trem de pouso durante aproximação da pista 33 às 13:10L (12:10Z) . 

Após detectar o problema a tripulação realizou espera de 80 minutos para reduzir o nível de combustível, o pouso na pista 33 foi as 14:40L (13:40Z), a aeronave foi evacuada e os passageiro e tripulantes sairam ilesos.

O aeroporto voltará a operar na quarta-feira (Nov 2nd) às 09:00L (08:00Z).

Reuters publicou um video do pouso: http://www.youtube.com/watch?v=d-N1L82VVoM.

Metars:
EPWA 011430Z 12005KT 080V150 9999 FEW018 BKN043 11/09 Q1022 NOSIG
EPWA 011400Z 12005KT 080V150 9999 FEW018 BKN043 12/10 Q1022 NOSIG EPWA 011330Z 13004KT 090V160 9999 SCT016 BKN043 12/10 Q1022 NOSIG EPWA 011300Z 14005KT 100V170 9999 SCT015 BKN043 13/10 Q1022 NOSIG EPWA 011230Z 14004KT 100V180 9999 SCT015 BKN043 13/10 Q1022 NOSIG EPWA 011200Z 14005KT 110V170 9999 SCT014 BKN043 13/10 Q1022 NOSIG
EPWA 011130Z 16004KT 120V200 9999 BKN014 13/10 Q1022 NOSIG
EPWA 011100Z VRB03KT 9999 SCT012 BKN043 12/10 Q1022 NOSIG
EPWA 011030Z VRB03KT 7000 SCT010 BKN043 12/10 Q1023 NOSIG

Relevant NOTAM:
A6471/11 - AD CLOSED. 01 NOV 13:43 2011 UNTIL 02 NOV 08:00 2011 ESTIMATED. CREATED: 01 NOV 13:45 2011

fonte/AvHerald/foto/PolskaTimes

VÍDEO - POUSO DE EMERGÊNCIA DO BOEING 767 DA LOT EM EPWA - HOJE

VEJA O VÍDEO NO LINK ABAIXO:

B767 LOT

COLISÃO NO SOLO DE DOIS ILYUSHIN IL-76 NA TURQUIA


erzurum havalimanında uçak kazası | www.akilli.tv

Dois Il-76 colidiram no aeroporto de Erzurum-Turquia, como resultado do desvio de um Il-76 EX-036 durante taxi.

Após o pouso a aeronave atingiu outro Il-76 com a asa, a tripulação não estavam a bordo do avião georgiano no momento do incidente.

A cabine foi bastante danificada. A tripulação do avião do Kirgizstani envolvida, foi detida.

As aeronaves estavam envolvidas na missão humanitária para ajudar as vítimas do terremoto na província de Van, Turquia.



fonte/Akilli/ASN

MÍSTERIO REVELADO - ANTOINE SAINT-EXUPÉRY...

Foi um segredo guardado durante 64 anos. Horst Rippert, piloto alemão da Luftwaffe, admitiu, aos 88 anos, ter abatido Antoine de St Exu...